Preview of NWS' New Version of Forecast
This preview is not operational and should not be used for support decisions.

Terminal Aerodrome Forecast (TAF)

Issued by National Weather Service (NWS)

                            
007 
FTUS42 KKEY 250859 AAA
TAFMTH
TAF AMD
KMTH 250859Z 2509/2606 12011KT P6SM SCT025
     FM251600 13008KT P6SM FEW020 SCT090=